createdAt,value
2017-11-01T00:00:03.243Z,18.49
2017-11-01T00:01:03.278Z,18.47
2017-11-01T00:02:03.602Z,18.47
2017-11-01T00:03:03.345Z,18.47
2017-11-01T00:04:03.374Z,18.39
2017-11-01T00:05:03.440Z,18.46
2017-11-01T00:06:03.435Z,18.49
2017-11-01T00:07:03.451Z,18.41
2017-11-01T00:08:03.500Z,18.49
2017-11-01T00:09:03.765Z,18.47
2017-11-01T00:10:03.592Z,18.41
2017-11-01T00:11:03.569Z,18.44
2017-11-01T00:12:03.609Z,18.39
2017-11-01T00:13:03.633Z,18.38
2017-11-01T00:14:03.673Z,18.46
2017-11-01T00:15:03.713Z,18.50
2017-11-01T00:16:04.028Z,18.41
2017-11-01T00:17:03.767Z,18.46
2017-11-01T00:18:03.803Z,18.42
2017-11-01T00:19:03.826Z,18.36
2017-11-01T00:20:03.841Z,18.47
2017-11-01T00:21:03.919Z,18.38
2017-11-01T00:22:03.910Z,18.47
2017-11-01T00:23:04.198Z,18.51
2017-11-01T00:24:03.976Z,18.44
2017-11-01T00:25:04.010Z,18.46
2017-11-01T00:26:04.069Z,18.38
2017-11-01T00:27:04.065Z,18.38
2017-11-01T00:28:04.077Z,18.44
2017-11-01T00:29:04.108Z,18.38
2017-11-01T00:30:04.410Z,18.38
2017-11-01T00:31:04.167Z,18.39
2017-11-01T00:32:04.198Z,18.41
2017-11-01T00:33:04.234Z,18.47
2017-11-01T00:34:04.281Z,18.36
2017-11-01T00:35:04.294Z,18.38
2017-11-01T00:36:04.567Z,18.38
2017-11-01T00:37:04.670Z,18.36
2017-11-01T00:38:04.402Z,18.36
2017-11-01T00:39:04.434Z,18.46
2017-11-01T00:40:04.437Z,18.39
2017-11-01T00:41:04.496Z,18.39
2017-11-01T00:42:04.501Z,18.38
2017-11-01T00:43:04.831Z,18.39
2017-11-01T00:44:04.590Z,18.39
2017-11-01T00:45:04.623Z,18.47
2017-11-01T00:46:04.628Z,18.41
2017-11-01T00:47:04.757Z,18.42
2017-11-01T00:48:04.700Z,18.42
2017-11-01T00:49:05.009Z,18.39
2017-11-01T00:50:04.758Z,18.42
2017-11-01T00:51:04.782Z,18.39
2017-11-01T00:52:04.823Z,18.38
2017-11-01T00:53:04.825Z,18.38
2017-11-01T00:54:04.855Z,18.38
2017-11-01T00:55:05.152Z,18.39
2017-11-01T00:56:04.931Z,18.44
2017-11-01T00:57:04.969Z,18.38
2017-11-01T00:58:04.990Z,18.41
2017-11-01T00:59:05.025Z,18.38
2017-11-01T01:00:05.052Z,18.39
2017-11-01T01:01:05.388Z,18.50
2017-11-01T01:02:05.108Z,18.46
2017-11-01T01:03:05.376Z,18.50
2017-11-01T01:04:05.154Z,18.39
2017-11-01T01:05:05.192Z,18.39
2017-11-01T01:06:05.214Z,18.44
2017-11-01T01:07:05.518Z,18.41
2017-11-01T01:08:05.307Z,18.47
2017-11-01T01:09:05.457Z,18.39
2017-11-01T01:10:05.340Z,18.42
2017-11-01T01:11:05.383Z,18.46
2017-11-01T01:12:05.395Z,18.41
2017-11-01T01:13:05.725Z,18.44
2017-11-01T01:14:05.459Z,18.36
2017-11-01T01:15:05.507Z,18.41
2017-11-01T01:16:05.530Z,18.38
2017-11-01T01:17:05.543Z,18.44
2017-11-01T01:18:05.601Z,18.41
2017-11-01T01:19:05.870Z,18.38
2017-11-01T01:20:05.656Z,18.46
2017-11-01T01:21:05.811Z,18.41
2017-11-01T01:22:05.709Z,18.41
2017-11-01T01:23:05.722Z,18.39
2017-11-01T01:24:05.776Z,18.38
2017-11-01T01:25:06.051Z,18.42
2017-11-01T01:26:05.810Z,18.41
2017-11-01T01:27:05.912Z,18.42
2017-11-01T01:28:05.892Z,18.39
2017-11-01T01:29:05.919Z,18.39
2017-11-01T01:30:06.046Z,18.44
2017-11-01T01:31:06.214Z,18.38
2017-11-01T01:32:06.002Z,18.44
2017-11-01T01:33:06.048Z,18.39
2017-11-01T01:34:06.073Z,18.35
2017-11-01T01:35:06.105Z,18.39
2017-11-01T01:36:06.381Z,18.42
2017-11-01T01:37:06.409Z,18.41
2017-11-01T01:38:06.174Z,18.42
2017-11-01T01:39:06.220Z,18.39
2017-11-01T01:40:06.234Z,18.42
2017-11-01T01:41:06.282Z,18.39
2017-11-01T01:42:06.315Z,18.42
2017-11-01T01:43:06.637Z,18.41
2017-11-01T01:44:06.356Z,18.44
2017-11-01T01:45:06.405Z,18.39
2017-11-01T01:46:06.431Z,18.39
2017-11-01T01:47:06.439Z,18.38
2017-11-01T01:48:06.488Z,18.38
2017-11-01T01:49:06.802Z,18.44
2017-11-01T01:50:06.645Z,18.38
2017-11-01T01:51:06.574Z,18.41
2017-11-01T01:52:06.592Z,18.47
2017-11-01T01:53:06.641Z,18.41
2017-11-01T01:54:06.669Z,18.44
2017-11-01T01:55:06.701Z,18.38
2017-11-01T01:56:06.974Z,18.39
2017-11-01T01:57:06.757Z,18.39
2017-11-01T01:58:06.777Z,18.47
2017-11-01T01:59:06.967Z,18.38
2017-11-01T02:00:06.833Z,18.38
2017-11-01T02:01:06.873Z,18.42
2017-11-01T02:02:06.892Z,18.39
2017-11-01T02:03:07.216Z,18.39
2017-11-01T02:04:06.967Z,18.41
2017-11-01T02:05:07.180Z,18.44
2017-11-01T02:06:07.014Z,18.39
2017-11-01T02:07:07.063Z,18.46
2017-11-01T02:08:07.068Z,18.39
2017-11-01T02:09:07.144Z,18.34
2017-11-01T02:10:07.407Z,18.47
2017-11-01T02:11:07.240Z,18.42
2017-11-01T02:12:07.218Z,18.36
2017-11-01T02:13:07.233Z,18.44
2017-11-01T02:14:07.266Z,18.39
2017-11-01T02:15:07.278Z,18.34
2017-11-01T02:16:07.337Z,18.46
2017-11-01T02:17:07.888Z,18.42
2017-11-01T02:18:07.376Z,18.35
2017-11-01T02:19:07.403Z,18.44
2017-11-01T02:20:07.452Z,18.36
2017-11-01T02:21:07.459Z,18.38
2017-11-01T02:22:07.488Z,18.34
2017-11-01T02:23:07.532Z,18.41
2017-11-01T02:24:07.796Z,18.32
2017-11-01T02:25:07.576Z,18.47
2017-11-01T02:26:07.638Z,18.34
2017-11-01T02:27:07.651Z,18.47
2017-11-01T02:28:07.669Z,18.38
2017-11-01T02:29:07.733Z,18.34
2017-11-01T02:30:07.742Z,18.44
2017-11-01T02:31:08.007Z,18.42
2017-11-01T02:32:07.785Z,18.44
2017-11-01T02:33:07.838Z,18.38
2017-11-01T02:34:07.844Z,18.42
2017-11-01T02:35:07.900Z,18.39
2017-11-01T02:36:07.906Z,18.36
2017-11-01T02:37:07.950Z,18.34
2017-11-01T02:38:08.272Z,18.46
2017-11-01T02:39:08.032Z,18.34
2017-11-01T02:40:08.085Z,18.46
2017-11-01T02:41:08.379Z,18.44
2017-11-01T02:42:08.101Z,18.28
2017-11-01T02:43:08.141Z,18.36
2017-11-01T02:44:08.162Z,18.38
2017-11-01T02:45:08.516Z,18.39
2017-11-01T02:46:08.205Z,18.34
2017-11-01T02:47:08.284Z,18.41
2017-11-01T02:48:08.264Z,18.36
2017-11-01T02:49:08.314Z,18.31
2017-11-01T02:50:08.391Z,18.46
2017-11-01T02:51:08.353Z,18.42
2017-11-01T02:52:08.709Z,18.34
2017-11-01T02:53:08.417Z,18.34
2017-11-01T02:54:08.440Z,18.28
2017-11-01T02:55:08.488Z,18.35
2017-11-01T02:56:08.520Z,18.42
2017-11-01T02:57:08.547Z,18.44
2017-11-01T02:58:08.617Z,18.41
2017-11-01T02:59:09.126Z,18.32
2017-11-01T03:00:08.845Z,18.44
2017-11-01T03:01:08.686Z,18.31
2017-11-01T03:02:08.696Z,18.44
2017-11-01T03:03:08.731Z,18.46
2017-11-01T03:04:08.771Z,18.34
2017-11-01T03:05:08.775Z,18.36
2017-11-01T03:06:09.149Z,18.39
2017-11-01T03:07:08.852Z,18.34
2017-11-01T03:08:08.860Z,18.44
2017-11-01T03:09:08.893Z,18.39
2017-11-01T03:10:09.080Z,18.39
2017-11-01T03:11:08.955Z,18.39
2017-11-01T03:12:09.252Z,18.47
2017-11-01T03:13:09.050Z,18.47
2017-11-01T03:14:09.048Z,18.42
2017-11-01T03:15:09.101Z,18.42
2017-11-01T03:16:09.275Z,18.41
2017-11-01T03:17:09.149Z,18.41
2017-11-01T03:18:09.495Z,18.41
2017-11-01T03:19:09.225Z,18.36
2017-11-01T03:20:09.221Z,18.38
2017-11-01T03:21:09.270Z,18.46
2017-11-01T03:22:09.345Z,18.41
2017-11-01T03:23:09.356Z,18.39
2017-11-01T03:24:09.672Z,18.41
2017-11-01T03:25:09.369Z,18.38
2017-11-01T03:26:09.418Z,18.41
2017-11-01T03:27:09.433Z,18.46
2017-11-01T03:28:09.522Z,18.42
2017-11-01T03:29:09.792Z,18.39
2017-11-01T03:30:09.828Z,18.38
2017-11-01T03:31:09.572Z,18.46
2017-11-01T03:32:09.597Z,18.42
2017-11-01T03:33:09.609Z,18.47
2017-11-01T03:34:09.854Z,18.39
2017-11-01T03:35:09.689Z,18.35
2017-11-01T03:36:09.969Z,18.39
2017-11-01T03:37:09.744Z,18.38
2017-11-01T03:38:09.763Z,18.34
2017-11-01T03:39:09.792Z,18.47
2017-11-01T03:40:09.992Z,18.36
2017-11-01T03:41:09.852Z,18.39
2017-11-01T03:42:10.124Z,18.41
2017-11-01T03:43:09.927Z,18.39
2017-11-01T03:44:09.955Z,18.44
2017-11-01T03:45:09.999Z,18.39
2017-11-01T03:46:10.023Z,18.41
2017-11-01T03:47:10.628Z,18.41
2017-11-01T03:48:10.364Z,18.44
2017-11-01T03:49:10.088Z,18.42
2017-11-01T03:50:10.156Z,18.46
2017-11-01T03:51:10.153Z,18.39
2017-11-01T03:52:10.178Z,18.39
2017-11-01T03:53:10.227Z,18.47
2017-11-01T03:54:10.553Z,18.41
2017-11-01T03:55:10.264Z,18.46
2017-11-01T03:56:10.318Z,18.38
2017-11-01T03:57:10.352Z,18.46
2017-11-01T03:58:10.414Z,18.41
2017-11-01T03:59:10.410Z,18.41
2017-11-01T04:00:10.734Z,18.49
2017-11-01T04:01:10.445Z,18.41
2017-11-01T04:02:10.493Z,18.39
2017-11-01T04:03:10.547Z,18.46
2017-11-01T04:04:10.828Z,18.39
2017-11-01T04:05:10.604Z,18.39
2017-11-01T04:06:10.920Z,18.38
2017-11-01T04:07:10.629Z,18.42
2017-11-01T04:08:10.673Z,18.41
2017-11-01T04:09:10.701Z,18.41
2017-11-01T04:10:10.839Z,18.39
2017-11-01T04:11:10.763Z,18.42
2017-11-01T04:12:11.099Z,18.36
2017-11-01T04:13:10.829Z,18.38
2017-11-01T04:14:10.936Z,18.49
2017-11-01T04:15:10.884Z,18.44
2017-11-01T04:16:10.909Z,18.41
2017-11-01T04:17:10.947Z,18.42
2017-11-01T04:18:11.278Z,18.38
2017-11-01T04:19:11.001Z,18.39
2017-11-01T04:20:11.065Z,18.41
2017-11-01T04:21:11.045Z,18.41
2017-11-01T04:22:11.097Z,18.36
2017-11-01T04:23:11.122Z,18.50
2017-11-01T04:24:11.451Z,18.46
2017-11-01T04:25:11.190Z,18.50
2017-11-01T04:26:11.211Z,18.38
2017-11-01T04:27:11.249Z,18.44
2017-11-01T04:28:11.253Z,18.38
2017-11-01T04:29:11.311Z,18.38
2017-11-01T04:30:11.586Z,18.39
2017-11-01T04:31:11.663Z,18.39
2017-11-01T04:32:11.401Z,18.44
2017-11-01T04:33:11.433Z,18.36
2017-11-01T04:34:11.456Z,18.41
2017-11-01T04:35:11.482Z,18.49
2017-11-01T04:36:11.641Z,18.47
2017-11-01T04:37:11.561Z,18.39
2017-11-01T04:38:11.803Z,18.51
2017-11-01T04:39:11.612Z,18.39
2017-11-01T04:40:11.620Z,18.39
2017-11-01T04:41:11.664Z,18.44
2017-11-01T04:42:11.692Z,18.46
2017-11-01T04:43:11.710Z,18.42
2017-11-01T04:44:11.744Z,18.36
2017-11-01T04:45:12.127Z,18.36
2017-11-01T04:46:11.798Z,18.44
2017-11-01T04:47:11.846Z,18.44
2017-11-01T04:48:11.921Z,18.50
2017-11-01T04:49:11.906Z,18.46
2017-11-01T04:50:11.935Z,18.47
2017-11-01T04:51:11.955Z,18.51
2017-11-01T04:52:12.293Z,18.49
2017-11-01T04:53:12.020Z,18.39
2017-11-01T04:54:12.092Z,18.47
2017-11-01T04:55:12.153Z,18.49
2017-11-01T04:56:12.110Z,18.49
2017-11-01T04:57:12.239Z,18.46
2017-11-01T04:58:12.177Z,18.44
2017-11-01T04:59:12.449Z,18.46
2017-11-01T05:00:12.216Z,18.44
2017-11-01T05:01:12.264Z,18.46
2017-11-01T05:02:12.542Z,18.51
2017-11-01T05:03:12.311Z,18.42
2017-11-01T05:04:12.335Z,18.50
2017-11-01T05:05:12.381Z,18.39
2017-11-01T05:06:12.712Z,18.50
2017-11-01T05:07:12.425Z,18.50
2017-11-01T05:08:12.638Z,18.47
2017-11-01T05:09:12.483Z,18.47
2017-11-01T05:10:12.520Z,18.44
2017-11-01T05:11:12.541Z,18.44
2017-11-01T05:12:12.575Z,18.46
2017-11-01T05:13:12.922Z,18.47
2017-11-01T05:14:12.632Z,18.49
2017-11-01T05:15:12.688Z,18.50
2017-11-01T05:16:12.692Z,18.46
2017-11-01T05:17:12.750Z,18.49
2017-11-01T05:18:12.769Z,18.50
2017-11-01T05:19:12.805Z,18.49
2017-11-01T05:20:13.093Z,18.44
2017-11-01T05:21:12.859Z,18.49
2017-11-01T05:22:12.899Z,18.51
2017-11-01T05:23:13.135Z,18.49
2017-11-01T05:24:12.964Z,18.53
2017-11-01T05:25:12.962Z,18.41
2017-11-01T05:26:12.997Z,18.49
2017-11-01T05:27:13.269Z,18.44
2017-11-01T05:28:13.053Z,18.50
2017-11-01T05:29:13.111Z,18.51
2017-11-01T05:30:13.170Z,18.44
2017-11-01T05:31:13.157Z,18.49
2017-11-01T05:32:13.188Z,18.53
2017-11-01T05:33:13.263Z,18.42
2017-11-01T05:34:13.502Z,18.46
2017-11-01T05:35:13.530Z,18.49
2017-11-01T05:36:13.293Z,18.50
2017-11-01T05:37:13.337Z,18.46
2017-11-01T05:38:13.358Z,18.49
2017-11-01T05:39:13.415Z,18.50
2017-11-01T05:40:13.464Z,18.42
2017-11-01T05:41:14.065Z,18.47
2017-11-01T05:42:13.534Z,18.44
2017-11-01T05:43:13.523Z,18.50
2017-11-01T05:44:13.536Z,18.53
2017-11-01T05:45:13.563Z,18.47
2017-11-01T05:46:13.680Z,18.53
2017-11-01T05:47:13.851Z,18.49
2017-11-01T05:48:13.923Z,18.47
2017-11-01T05:49:13.707Z,18.50
2017-11-01T05:50:13.721Z,18.47
2017-11-01T05:51:13.751Z,18.51
2017-11-01T05:52:13.788Z,18.46
2017-11-01T05:53:14.099Z,18.47
2017-11-01T05:54:14.100Z,18.50
2017-11-01T05:55:13.897Z,18.50
2017-11-01T05:56:13.889Z,18.49
2017-11-01T05:57:14.020Z,18.42
2017-11-01T05:58:13.962Z,18.46
2017-11-01T05:59:14.271Z,18.42
2017-11-01T06:00:14.332Z,18.42
2017-11-01T06:01:14.047Z,18.46
2017-11-01T06:02:14.069Z,18.47
2017-11-01T06:03:14.102Z,18.49
2017-11-01T06:04:14.145Z,18.41
2017-11-01T06:05:14.215Z,18.49
2017-11-01T06:06:14.547Z,18.39
2017-11-01T06:07:14.233Z,18.47
2017-11-01T06:08:14.279Z,18.44
2017-11-01T06:09:14.324Z,18.38
2017-11-01T06:10:14.342Z,18.42
2017-11-01T06:11:14.349Z,18.53
2017-11-01T06:12:14.671Z,18.44
2017-11-01T06:13:14.865Z,18.47
2017-11-01T06:14:14.462Z,18.50
2017-11-01T06:15:14.541Z,18.49
2017-11-01T06:16:14.564Z,18.49
2017-11-01T06:17:14.787Z,18.41
2017-11-01T06:18:14.932Z,18.47
2017-11-01T06:19:14.592Z,18.47
2017-11-01T06:20:14.768Z,18.51
2017-11-01T06:21:14.645Z,18.44
2017-11-01T06:22:14.695Z,18.47
2017-11-01T06:23:14.718Z,18.41
2017-11-01T06:24:15.045Z,18.42
2017-11-01T06:25:14.804Z,18.54
2017-11-01T06:26:14.791Z,18.42
2017-11-01T06:27:14.914Z,18.42
2017-11-01T06:28:15.152Z,18.53
2017-11-01T06:29:14.887Z,18.54
2017-11-01T06:30:15.164Z,18.51
2017-11-01T06:31:14.940Z,18.53
2017-11-01T06:32:14.982Z,18.46
2017-11-01T06:33:15.019Z,18.46
2017-11-01T06:34:15.146Z,18.59
2017-11-01T06:35:15.060Z,18.50
2017-11-01T06:36:15.341Z,18.51
2017-11-01T06:37:15.239Z,18.47
2017-11-01T06:38:15.163Z,18.47
2017-11-01T06:39:15.210Z,18.49
2017-11-01T06:40:15.209Z,18.56
2017-11-01T06:41:15.270Z,18.53
2017-11-01T06:42:15.589Z,18.57
2017-11-01T06:43:15.327Z,18.47
2017-11-01T06:44:15.344Z,18.46
2017-11-01T06:45:15.380Z,18.50
2017-11-01T06:46:15.419Z,18.50
2017-11-01T06:47:15.420Z,18.53
2017-11-01T06:48:15.748Z,18.54
2017-11-01T06:49:15.507Z,18.50
2017-11-01T06:50:15.509Z,18.50
2017-11-01T06:51:15.539Z,18.49
2017-11-01T06:52:15.579Z,18.49
2017-11-01T06:53:15.635Z,18.59
2017-11-01T06:54:15.956Z,18.47
2017-11-01T06:55:15.715Z,18.56
2017-11-01T06:56:15.706Z,18.51
2017-11-01T06:57:15.738Z,18.51
2017-11-01T06:58:15.797Z,18.62
2017-11-01T06:59:15.787Z,18.59
2017-11-01T07:00:15.829Z,18.53
2017-11-01T07:01:16.206Z,18.60
2017-11-01T07:02:15.892Z,18.57
2017-11-01T07:03:16.020Z,18.54
2017-11-01T07:04:15.960Z,18.60
2017-11-01T07:05:15.991Z,18.59
2017-11-01T07:06:15.989Z,18.59
2017-11-01T07:07:16.103Z,18.62
2017-11-01T07:08:16.373Z,18.59
2017-11-01T07:09:16.238Z,18.56
2017-11-01T07:10:16.140Z,18.57
2017-11-01T07:11:16.157Z,18.57
2017-11-01T07:12:16.214Z,18.54
2017-11-01T07:13:16.249Z,18.60
2017-11-01T07:14:16.245Z,18.59
2017-11-01T07:15:16.668Z,18.56
2017-11-01T07:16:16.316Z,18.56
2017-11-01T07:17:16.320Z,18.64
2017-11-01T07:18:16.370Z,18.57
2017-11-01T07:19:16.392Z,18.60
2017-11-01T07:20:16.415Z,18.56
2017-11-01T07:21:16.438Z,18.69
2017-11-01T07:22:16.724Z,18.60
2017-11-01T07:23:16.514Z,18.64
2017-11-01T07:24:16.665Z,18.71
2017-11-01T07:25:16.578Z,18.60
2017-11-01T07:26:16.604Z,18.66
2017-11-01T07:27:16.638Z,18.65
2017-11-01T07:28:16.667Z,18.68
2017-11-01T07:29:16.939Z,18.68
2017-11-01T07:30:16.725Z,18.62
2017-11-01T07:31:16.747Z,18.66
2017-11-01T07:32:16.774Z,18.60
2017-11-01T07:33:16.819Z,18.72
2017-11-01T07:34:16.837Z,18.64
2017-11-01T07:35:16.864Z,18.62
2017-11-01T07:36:17.143Z,18.71
2017-11-01T07:37:16.942Z,18.66
2017-11-01T07:38:16.954Z,18.66
2017-11-01T07:39:16.984Z,18.64
2017-11-01T07:40:17.029Z,18.64
2017-11-01T07:41:17.043Z,18.74
2017-11-01T07:42:17.098Z,18.68
2017-11-01T07:43:17.406Z,18.72
2017-11-01T07:44:17.151Z,18.69
2017-11-01T07:45:17.179Z,18.72
2017-11-01T07:46:17.208Z,18.69
2017-11-01T07:47:17.239Z,18.72
2017-11-01T07:48:17.269Z,18.75
2017-11-01T07:49:17.284Z,18.65
2017-11-01T07:50:17.631Z,18.78
2017-11-01T07:51:17.343Z,18.74
2017-11-01T07:52:17.545Z,18.82
2017-11-01T07:53:17.420Z,18.74
2017-11-01T07:54:17.434Z,18.76
2017-11-01T07:55:17.464Z,18.75
2017-11-01T07:56:17.494Z,18.72
2017-11-01T07:57:17.835Z,18.74
2017-11-01T07:58:17.580Z,18.75
2017-11-01T07:59:17.589Z,18.79
2017-11-01T08:00:17.641Z,18.75
2017-11-01T08:01:17.646Z,18.78
2017-11-01T08:02:17.672Z,18.76
2017-11-01T08:03:17.726Z,18.79
2017-11-01T08:04:17.991Z,18.76
2017-11-01T08:05:17.779Z,18.74
2017-11-01T08:06:18.021Z,18.82
2017-11-01T08:07:17.824Z,18.78
2017-11-01T08:08:17.876Z,18.71
2017-11-01T08:09:17.890Z,18.82
2017-11-01T08:10:17.934Z,18.78
2017-11-01T08:11:18.221Z,18.83
2017-11-01T08:12:17.980Z,18.82
2017-11-01T08:13:18.025Z,18.79
2017-11-01T08:14:18.055Z,18.82
2017-11-01T08:15:18.084Z,18.82
2017-11-01T08:16:18.100Z,18.83
2017-11-01T08:17:18.439Z,18.82
2017-11-01T08:18:18.156Z,18.76
2017-11-01T08:19:18.205Z,18.79
2017-11-01T08:20:18.240Z,18.82
2017-11-01T08:21:18.272Z,18.79
2017-11-01T08:22:18.286Z,18.75
2017-11-01T08:23:18.610Z,18.78
2017-11-01T08:24:18.351Z,18.83
2017-11-01T08:25:18.391Z,18.74
2017-11-01T08:26:18.536Z,18.87
2017-11-01T08:27:18.447Z,18.74
2017-11-01T08:28:18.476Z,18.83
2017-11-01T08:29:18.754Z,18.86
2017-11-01T08:30:18.547Z,18.91
2017-11-01T08:31:18.622Z,18.84
2017-11-01T08:32:18.580Z,18.89
2017-11-01T08:33:18.612Z,18.87
2017-11-01T08:34:18.669Z,18.87
2017-11-01T08:35:18.940Z,18.83
2017-11-01T08:36:18.702Z,18.76
2017-11-01T08:37:18.738Z,18.84
2017-11-01T08:38:18.769Z,18.86
2017-11-01T08:39:18.798Z,18.90
2017-11-01T08:40:18.842Z,18.83
2017-11-01T08:41:19.172Z,18.89
2017-11-01T08:42:18.907Z,18.79
2017-11-01T08:43:18.934Z,18.89
2017-11-01T08:44:18.947Z,18.96
2017-11-01T08:45:18.994Z,18.93
2017-11-01T08:46:19.161Z,18.91
2017-11-01T08:47:19.353Z,18.89
2017-11-01T08:48:19.065Z,18.93
2017-11-01T08:49:19.097Z,18.93
2017-11-01T08:50:19.126Z,18.87
2017-11-01T08:51:19.169Z,18.90
2017-11-01T08:52:19.209Z,18.91
2017-11-01T08:53:19.548Z,18.91
2017-11-01T08:54:19.257Z,18.89
2017-11-01T08:55:19.298Z,18.87
2017-11-01T08:56:19.331Z,18.84
2017-11-01T08:57:19.364Z,18.90
2017-11-01T08:58:19.387Z,18.97
2017-11-01T08:59:19.702Z,18.94
2017-11-01T09:00:19.435Z,18.79
2017-11-01T09:01:19.463Z,18.86
2017-11-01T09:02:19.514Z,18.89
2017-11-01T09:03:19.542Z,18.89
2017-11-01T09:04:19.572Z,18.93
2017-11-01T09:05:19.854Z,18.90
2017-11-01T09:06:19.685Z,18.91
2017-11-01T09:07:19.662Z,18.90
2017-11-01T09:08:19.673Z,18.91
2017-11-01T09:09:19.710Z,18.90
2017-11-01T09:10:19.760Z,18.89
2017-11-01T09:11:20.018Z,18.99
2017-11-01T09:12:19.822Z,18.89
2017-11-01T09:13:19.927Z,18.87
2017-11-01T09:14:19.857Z,18.89
2017-11-01T09:15:19.893Z,18.99
2017-11-01T09:16:19.919Z,19.02
2017-11-01T09:17:20.268Z,18.96
2017-11-01T09:18:19.976Z,19.02
2017-11-01T09:19:20.032Z,19.05
2017-11-01T09:20:20.040Z,19.06
2017-11-01T09:21:20.089Z,19.01
2017-11-01T09:22:20.100Z,19.07
2017-11-01T09:23:20.455Z,19.05
2017-11-01T09:24:20.193Z,18.97
2017-11-01T09:25:20.198Z,19.10
2017-11-01T09:26:20.274Z,19.10
2017-11-01T09:27:20.278Z,19.09
2017-11-01T09:28:20.282Z,19.06
2017-11-01T09:29:20.581Z,19.10
2017-11-01T09:30:20.421Z,19.12
2017-11-01T09:31:20.440Z,19.09
2017-11-01T09:32:20.407Z,19.09
2017-11-01T09:33:20.458Z,19.09
2017-11-01T09:34:20.476Z,19.10
2017-11-01T09:35:20.500Z,19.17
2017-11-01T09:36:20.777Z,19.15
2017-11-01T09:37:20.574Z,19.17
2017-11-01T09:38:20.587Z,19.15
2017-11-01T09:39:20.624Z,19.17
2017-11-01T09:40:20.749Z,19.15
2017-11-01T09:41:20.683Z,19.23
2017-11-01T09:42:20.740Z,19.17
2017-11-01T09:43:21.000Z,19.20
2017-11-01T09:44:20.776Z,19.16
2017-11-01T09:45:20.803Z,19.30
2017-11-01T09:46:20.834Z,19.25
2017-11-01T09:47:20.882Z,19.23
2017-11-01T09:48:20.896Z,19.28
2017-11-01T09:49:20.935Z,19.27
2017-11-01T09:50:21.274Z,19.23
2017-11-01T09:51:21.061Z,19.27
2017-11-01T09:52:21.041Z,19.25
2017-11-01T09:53:21.064Z,19.30
2017-11-01T09:54:21.080Z,19.24
2017-11-01T09:55:21.145Z,19.28
2017-11-01T09:56:21.157Z,19.30
2017-11-01T09:57:21.496Z,19.31
2017-11-01T09:58:21.324Z,19.28
2017-11-01T09:59:21.238Z,19.24
2017-11-01T10:00:21.265Z,19.27
2017-11-01T10:01:21.311Z,19.28
2017-11-01T10:02:21.344Z,19.30
2017-11-01T10:03:21.376Z,19.32
2017-11-01T10:04:21.654Z,19.30
2017-11-01T10:05:21.434Z,19.34
2017-11-01T10:06:21.449Z,19.40
2017-11-01T10:07:21.477Z,19.43
2017-11-01T10:08:21.544Z,19.39
2017-11-01T10:09:21.562Z,19.32
2017-11-01T10:10:21.585Z,19.34
2017-11-01T10:11:21.854Z,19.35
2017-11-01T10:12:21.798Z,19.34
2017-11-01T10:13:21.680Z,19.39
2017-11-01T10:14:21.694Z,19.39
2017-11-01T10:15:21.742Z,19.39
2017-11-01T10:16:21.784Z,19.35
2017-11-01T10:17:21.909Z,19.39
2017-11-01T10:19:24.685Z,19.35
2017-11-01T10:20:21.912Z,19.38
2017-11-01T10:21:21.934Z,19.35
2017-11-01T10:22:21.956Z,19.35
2017-11-01T10:23:21.970Z,19.42
2017-11-01T10:24:22.020Z,19.38
2017-11-01T10:25:22.050Z,19.35
2017-11-01T10:26:22.366Z,19.39
2017-11-01T10:27:22.095Z,19.32
2017-11-01T10:28:22.142Z,19.35
2017-11-01T10:29:22.309Z,19.35
2017-11-01T10:30:22.182Z,19.35
2017-11-01T10:31:22.231Z,19.42
2017-11-01T10:32:22.249Z,19.38
2017-11-01T10:33:22.554Z,19.40
2017-11-01T10:34:22.307Z,19.40
2017-11-01T10:35:22.364Z,19.43
2017-11-01T10:36:22.371Z,19.47
2017-11-01T10:37:22.401Z,19.52
2017-11-01T10:38:22.448Z,19.47
2017-11-01T10:39:22.462Z,19.45
2017-11-01T10:40:22.769Z,19.45
2017-11-01T10:41:22.543Z,19.46
2017-11-01T10:42:22.566Z,19.46
2017-11-01T10:43:22.587Z,19.47
2017-11-01T10:44:22.624Z,19.49
2017-11-01T10:45:22.653Z,19.49
2017-11-01T10:46:22.696Z,19.53
2017-11-01T10:47:23.036Z,19.50
2017-11-01T10:48:22.762Z,19.52
2017-11-01T10:49:22.794Z,19.58
2017-11-01T10:50:22.803Z,19.53
2017-11-01T10:51:22.878Z,19.52
2017-11-01T10:52:22.862Z,19.58
2017-11-01T10:53:23.167Z,19.57
2017-11-01T10:54:22.924Z,19.57
2017-11-01T10:55:22.959Z,19.50
2017-11-01T10:56:23.008Z,19.49
2017-11-01T10:57:23.039Z,19.53
2017-11-01T10:58:23.082Z,19.52
2017-11-01T10:59:23.387Z,19.58
2017-11-01T11:00:23.116Z,19.52
2017-11-01T11:01:23.155Z,19.58
2017-11-01T11:02:23.192Z,19.52
2017-11-01T11:03:23.233Z,19.49
2017-11-01T11:04:23.263Z,19.58
2017-11-01T11:05:23.548Z,19.53
2017-11-01T11:06:23.314Z,19.60
2017-11-01T11:07:23.330Z,19.50
2017-11-01T11:08:23.360Z,19.58
2017-11-01T11:09:23.406Z,19.53
2017-11-01T11:10:23.424Z,19.61
2017-11-01T11:11:23.704Z,19.49
2017-11-01T11:12:23.487Z,19.52
2017-11-01T11:13:23.564Z,19.52
2017-11-01T11:14:23.568Z,19.53
2017-11-01T11:15:23.580Z,19.55
2017-11-01T11:16:23.630Z,19.47
2017-11-01T11:17:23.959Z,19.53
2017-11-01T11:18:23.700Z,19.61
2017-11-01T11:19:23.709Z,19.57
2017-11-01T11:20:23.751Z,19.50
2017-11-01T11:21:23.781Z,19.60
2017-11-01T11:22:23.814Z,19.52
2017-11-01T11:23:24.143Z,19.50
2017-11-01T11:24:23.879Z,19.61
2017-11-01T11:25:23.893Z,19.58
2017-11-01T11:26:23.918Z,19.60
2017-11-01T11:27:23.976Z,19.49
2017-11-01T11:28:24.002Z,19.62
2017-11-01T11:29:24.290Z,19.57
2017-11-01T11:30:24.058Z,19.60
2017-11-01T11:31:24.195Z,19.62
2017-11-01T11:32:24.134Z,19.53
2017-11-01T11:33:24.145Z,19.61
2017-11-01T11:34:24.182Z,19.60
2017-11-01T11:35:24.470Z,19.52
2017-11-01T11:36:24.228Z,19.58
2017-11-01T11:37:24.275Z,19.55
2017-11-01T11:38:24.406Z,19.57
2017-11-01T11:39:24.327Z,19.64
2017-11-01T11:40:24.369Z,19.58
2017-11-01T11:41:24.654Z,19.58
2017-11-01T11:42:24.417Z,19.70
2017-11-01T11:43:24.547Z,19.55
2017-11-01T11:44:24.476Z,19.62
2017-11-01T11:45:24.508Z,19.57
2017-11-01T11:46:24.536Z,19.62
2017-11-01T11:47:24.853Z,19.62
2017-11-01T11:48:24.603Z,19.65
2017-11-01T11:49:24.649Z,19.64
2017-11-01T11:50:24.666Z,19.62
2017-11-01T11:51:24.695Z,19.58
2017-11-01T11:52:24.728Z,19.62
2017-11-01T11:53:25.073Z,19.67
2017-11-01T11:54:24.793Z,19.71
2017-11-01T11:55:24.835Z,19.72
2017-11-01T11:56:24.861Z,19.68
2017-11-01T11:57:24.897Z,19.65
2017-11-01T11:58:24.924Z,19.64
2017-11-01T11:59:25.210Z,19.70
2017-11-01T12:00:24.975Z,19.61
2017-11-01T12:01:25.005Z,19.65
2017-11-01T12:02:25.052Z,19.65
2017-11-01T12:03:25.085Z,19.62
2017-11-01T12:04:25.135Z,19.72
2017-11-01T12:05:25.144Z,19.61
2017-11-01T12:06:25.461Z,19.72
2017-11-01T12:07:25.206Z,19.70
2017-11-01T12:08:25.243Z,19.72
2017-11-01T12:09:25.272Z,19.71
2017-11-01T12:10:25.288Z,19.75
2017-11-01T12:11:25.332Z,19.72
2017-11-01T12:12:25.351Z,19.71
2017-11-01T12:13:25.689Z,19.68
2017-11-01T12:14:25.437Z,19.72
2017-11-01T12:15:25.458Z,19.76
2017-11-01T12:16:25.478Z,19.79
2017-11-01T12:17:25.516Z,19.71
2017-11-01T12:18:25.552Z,19.71
2017-11-01T12:19:25.747Z,19.79
2017-11-01T12:20:25.900Z,19.76
2017-11-01T12:21:25.629Z,19.71
2017-11-01T12:22:25.675Z,19.75
2017-11-01T12:23:25.697Z,19.62
2017-11-01T12:24:25.741Z,19.76
2017-11-01T12:25:25.853Z,19.85
2017-11-01T12:26:25.783Z,19.75
2017-11-01T12:27:26.084Z,19.72
2017-11-01T12:28:25.871Z,19.71
2017-11-01T12:29:25.881Z,19.71
2017-11-01T12:30:25.909Z,19.72
2017-11-01T12:31:25.966Z,19.83
2017-11-01T12:32:25.996Z,19.71
2017-11-01T12:33:26.022Z,19.67
2017-11-01T12:34:26.336Z,19.76
2017-11-01T12:35:26.101Z,19.72
2017-11-01T12:36:26.149Z,19.68
2017-11-01T12:37:26.134Z,19.80
2017-11-01T12:38:26.158Z,19.76
2017-11-01T12:39:26.190Z,19.78
2017-11-01T12:40:26.224Z,19.82
2017-11-01T12:41:26.522Z,19.80
2017-11-01T12:42:26.839Z,19.80
2017-11-01T12:43:26.332Z,19.82
2017-11-01T12:44:26.351Z,19.78
2017-11-01T12:45:26.395Z,19.82
2017-11-01T12:46:26.425Z,19.85
2017-11-01T12:47:26.469Z,19.76
2017-11-01T12:48:26.743Z,19.89
2017-11-01T12:49:26.506Z,19.80
2017-11-01T12:50:26.566Z,19.89
2017-11-01T12:51:26.584Z,19.85
2017-11-01T12:52:26.601Z,19.82
2017-11-01T12:53:26.909Z,19.80